createdAt,value
2023-05-02T00:01:50.966Z,0
2023-05-02T00:07:54.652Z,0
2023-05-02T00:11:57.313Z,0
2023-05-02T00:13:59.131Z,0
2023-05-02T00:16:09.451Z,0
2023-05-02T00:18:01.911Z,0
2023-05-02T00:22:05.642Z,3.088
2023-05-02T00:24:07.410Z,0
2023-05-02T00:28:10.345Z,0.702
2023-05-02T00:34:15.713Z,1.123
2023-05-02T00:38:19.287Z,0
2023-05-02T00:40:20.714Z,0
2023-05-02T00:44:24.123Z,0
2023-05-02T00:50:28.796Z,0
2023-05-02T00:54:30.995Z,0.561
2023-05-02T00:56:32.893Z,1.684
2023-05-02T01:00:35.858Z,0
2023-05-02T01:04:38.530Z,0
2023-05-02T01:06:39.743Z,0
2023-05-02T01:10:42.269Z,0
2023-05-02T01:16:47.026Z,0
2023-05-02T01:20:49.590Z,0
2023-05-02T01:22:51.237Z,0
2023-05-02T01:26:54.146Z,0
2023-05-02T01:32:59.799Z,0
2023-05-02T01:39:04.331Z,0
2023-05-02T01:43:07.281Z,0
2023-05-02T01:47:11.126Z,0
2023-05-02T01:49:12.507Z,0
2023-05-02T01:53:15.353Z,0
2023-05-02T01:57:18.588Z,0
2023-05-02T01:59:20.035Z,0
2023-05-02T02:03:22.780Z,0
2023-05-02T02:05:23.737Z,0
2023-05-02T02:07:25.271Z,0
2023-05-02T02:09:27.190Z,0
2023-05-02T02:15:32.396Z,0
2023-05-02T02:21:37.030Z,0
2023-05-02T02:25:40.382Z,0
2023-05-02T02:31:45.225Z,0
2023-05-02T02:35:47.961Z,0
2023-05-02T02:39:51.302Z,0
2023-05-02T02:41:53.030Z,0
2023-05-02T02:45:56.881Z,0
2023-05-02T02:47:58.748Z,0
2023-05-02T02:50:00.080Z,0
2023-05-02T02:52:00.946Z,0
2023-05-02T02:58:05.654Z,0
2023-05-02T03:00:07.275Z,0
2023-05-02T03:04:10.254Z,0
2023-05-02T03:08:13.353Z,0
2023-05-02T03:14:17.548Z,0
2023-05-02T03:18:19.730Z,1.263
2023-05-02T03:20:21.511Z,0.28
2023-05-02T03:24:24.404Z,0
2023-05-02T03:28:27.882Z,0
2023-05-02T03:30:29.366Z,0
2023-05-02T03:32:35.301Z,0
2023-05-02T03:34:32.712Z,0
2023-05-02T03:40:40.164Z,0
2023-05-02T03:46:42.454Z,0
2023-05-02T03:50:44.954Z,0
2023-05-02T03:56:49.701Z,0
2023-05-02T04:00:52.397Z,0
2023-05-02T04:02:53.621Z,0
2023-05-02T04:06:56.302Z,0
2023-05-02T04:10:58.805Z,0
2023-05-02T04:13:00.611Z,0
2023-05-02T04:17:03.464Z,0
2023-05-02T04:23:08.257Z,0
2023-05-02T04:27:13.085Z,0
2023-05-02T04:29:13.002Z,0
2023-05-02T04:33:16.137Z,0
2023-05-02T04:39:20.217Z,0
2023-05-02T04:43:24.665Z,0
2023-05-02T04:45:24.997Z,0
2023-05-02T04:49:27.260Z,0
2023-05-02T04:53:30.915Z,0
2023-05-02T04:55:32.729Z,0
2023-05-02T04:59:36.258Z,0
2023-05-02T05:05:40.355Z,0
2023-05-02T05:09:43.881Z,0
2023-05-02T05:11:45.250Z,0
2023-05-02T05:15:48.153Z,0
2023-05-02T05:21:52.869Z,0
2023-05-02T05:25:55.565Z,0
2023-05-02T05:27:57.247Z,0
2023-05-02T05:31:59.605Z,0
2023-05-02T05:36:02.592Z,0
2023-05-02T05:38:04.057Z,0
2023-05-02T05:42:07.326Z,0
2023-05-02T05:48:11.406Z,0
2023-05-02T05:52:14.355Z,0.14
2023-05-02T05:54:16.262Z,0
2023-05-02T05:59:03.167Z,0
2023-05-02T06:05:07.850Z,0
2023-05-02T06:09:10.101Z,0
2023-05-02T06:15:14.161Z,0
2023-05-02T06:19:17.770Z,0
2023-05-02T06:21:19.520Z,0
2023-05-02T06:25:23.870Z,0
2023-05-02T06:29:26.633Z,0
2023-05-02T06:31:27.752Z,0
2023-05-02T06:35:30.248Z,0
2023-05-02T06:41:35.034Z,0
2023-05-02T06:47:38.572Z,0
2023-05-02T06:51:41.791Z,0
2023-05-02T06:57:45.650Z,0
2023-05-02T07:01:48.222Z,0
2023-05-02T07:03:49.830Z,0
2023-05-02T07:07:52.690Z,0
2023-05-02T07:11:55.486Z,0
2023-05-02T07:13:56.743Z,0
2023-05-02T07:17:59.270Z,0
2023-05-02T07:24:03.260Z,0.702
2023-05-02T07:28:05.873Z,0.842
2023-05-02T07:30:06.971Z,0
2023-05-02T07:34:10.376Z,2.808
2023-05-02T07:40:14.880Z,0.702
2023-05-02T07:44:16.678Z,0.28
2023-05-02T07:46:17.579Z,0
2023-05-02T07:50:19.937Z,0.14
2023-05-02T07:54:23.036Z,1.263
2023-05-02T07:56:23.984Z,0.14
2023-05-02T08:00:26.738Z,1.684
2023-05-02T08:04:29.895Z,1.404
2023-05-02T08:06:31.665Z,0
2023-05-02T08:10:34.359Z,0.28
2023-05-02T08:12:36.823Z,1.404
2023-05-02T08:14:37.725Z,0.14
2023-05-02T08:16:39.555Z,1.965
2023-05-02T08:22:42.879Z,1.404
2023-05-02T08:28:46.478Z,0.421
2023-05-02T08:32:49.335Z,1.684
2023-05-02T08:38:54.500Z,0.28
2023-05-02T08:42:57.018Z,1.544
2023-05-02T08:46:59.469Z,2.667
2023-05-02T08:49:01.093Z,3.369
2023-05-02T08:53:02.793Z,3.088
2023-05-02T08:55:04.466Z,3.088
2023-05-02T08:59:07.849Z,4.071
2023-05-02T09:05:11.314Z,1.404
2023-05-02T09:11:15.331Z,0.702
2023-05-02T09:15:19.176Z,4.071
2023-05-02T09:21:21.943Z,0.702
2023-05-02T09:25:24.425Z,1.263
2023-05-02T09:27:26.009Z,4.914
2023-05-02T09:31:44.169Z,0.28
2023-05-02T09:35:31.074Z,0.28
2023-05-02T09:37:32.694Z,1.123
2023-05-02T09:41:35.487Z,0.14
2023-05-02T09:47:39.573Z,0.28
2023-05-02T09:51:42.801Z,0.702
2023-05-02T09:53:44.168Z,1.263
2023-05-02T09:57:47.380Z,3.229
2023-05-02T10:03:51.604Z,1.263
2023-05-02T10:07:54.901Z,4.352
2023-05-02T10:09:56.363Z,1.544
2023-05-02T10:13:59.303Z,3.79
2023-05-02T10:18:02.393Z,3.229
2023-05-02T10:20:03.697Z,1.684
2023-05-02T10:24:06.628Z,0.982
2023-05-02T10:30:10.760Z,1.544
2023-05-02T10:34:13.544Z,4.914
2023-05-02T10:36:14.698Z,1.965
2023-05-02T10:40:18.026Z,1.263
2023-05-02T10:46:21.776Z,8.424
2023-05-02T10:50:26.060Z,5.335
2023-05-02T10:52:26.099Z,6.318
2023-05-02T10:56:29.242Z,4.773
2023-05-02T11:00:31.584Z,1.965
2023-05-02T11:02:32.555Z,3.229
2023-05-02T11:06:34.759Z,2.106
2023-05-02T11:10:37.192Z,6.458
2023-05-02T11:12:38.834Z,2.808
2023-05-02T11:16:41.116Z,0.982
2023-05-02T11:18:42.367Z,0.842
2023-05-02T11:20:44.011Z,2.948
2023-05-02T11:22:44.837Z,3.51
2023-05-02T11:28:49.161Z,3.229
2023-05-02T11:34:53.662Z,7.16
2023-05-02T11:38:56.420Z,2.808
2023-05-02T11:45:01.802Z,3.79
2023-05-02T11:49:05.546Z,4.492
2023-05-02T11:51:05.813Z,2.246
2023-05-02T11:59:11.127Z,2.527
2023-05-02T12:01:12.702Z,3.79
2023-05-02T12:05:15.728Z,4.492
2023-05-02T12:11:19.551Z,4.212
2023-05-02T12:15:22.718Z,1.263
2023-05-02T12:17:24.192Z,5.616
2023-05-02T12:21:26.310Z,5.896
2023-05-02T12:27:30.056Z,3.229
2023-05-02T12:31:32.296Z,2.527
2023-05-02T12:33:33.604Z,6.598
2023-05-02T12:37:35.904Z,2.948
2023-05-02T12:41:38.367Z,3.931
2023-05-02T12:42:22.017Z,1.263
2023-05-02T12:46:24.354Z,2.948
2023-05-02T12:48:25.263Z,3.931
2023-05-02T12:52:27.618Z,3.65
2023-05-02T12:54:28.568Z,2.106
2023-05-02T12:56:29.640Z,2.948
2023-05-02T12:58:30.967Z,0.421
2023-05-02T13:04:35.120Z,3.369
2023-05-02T13:06:36.414Z,3.79
2023-05-02T13:10:39.468Z,4.071
2023-05-02T13:14:41.881Z,4.352
2023-05-02T13:20:46.838Z,4.071
2023-05-02T13:24:48.884Z,7.3
2023-05-02T13:26:49.701Z,3.931
2023-05-02T13:30:51.990Z,3.65
2023-05-02T13:34:54.713Z,0.702
2023-05-02T13:36:55.792Z,3.229
2023-05-02T13:40:58.172Z,1.263
2023-05-02T13:47:02.348Z,1.965
2023-05-02T13:51:04.181Z,4.914
2023-05-02T13:53:05.144Z,4.071
2023-05-02T13:57:08.240Z,5.335
2023-05-02T14:45:41.395Z,5.616
2023-05-02T14:47:42.451Z,2.386
2023-05-02T14:51:45.607Z,1.263
2023-05-02T14:55:47.458Z,5.756
2023-05-02T15:01:50.939Z,1.404
2023-05-02T15:05:53.198Z,4.914
2023-05-02T15:07:54.317Z,2.667
2023-05-02T15:11:56.308Z,2.527
2023-05-02T15:15:59.017Z,5.756
2023-05-02T15:18:00.022Z,3.088
2023-05-02T15:22:01.967Z,0.982
2023-05-02T15:28:06.180Z,3.229
2023-05-02T15:32:08.881Z,1.404
2023-05-02T15:34:09.988Z,6.879
2023-05-02T15:38:12.916Z,6.037
2023-05-02T15:44:17.302Z,8.985
2023-05-02T15:48:20.476Z,6.458
2023-05-02T15:50:22.075Z,4.212
2023-05-02T15:54:24.042Z,8.985
2023-05-02T15:58:27.053Z,7.581
2023-05-02T16:00:28.189Z,3.088
2023-05-02T16:04:30.840Z,0.702
2023-05-02T16:08:33.590Z,4.914
2023-05-02T16:10:34.687Z,0
2023-05-02T16:14:37.245Z,6.598
2023-05-02T16:16:38.602Z,0.14
2023-05-02T16:18:39.433Z,3.79
2023-05-02T16:20:40.911Z,5.054
2023-05-02T16:26:44.265Z,2.106
2023-05-02T16:32:48.576Z,1.965
2023-05-02T16:36:51.120Z,2.386
2023-05-02T16:42:55.698Z,4.071
2023-05-02T16:46:58.718Z,2.667
2023-05-02T16:48:59.628Z,2.246
2023-05-02T16:53:02.177Z,4.914
2023-05-02T16:57:04.765Z,6.177
2023-05-02T16:59:05.723Z,5.194
2023-05-02T17:03:09.203Z,2.808
2023-05-02T17:09:13.314Z,2.808
2023-05-02T17:13:16.607Z,3.369
2023-05-02T17:15:17.707Z,2.667
2023-05-02T17:19:20.821Z,4.492
2023-05-02T17:25:24.123Z,0.842
2023-05-02T17:29:26.070Z,4.071
2023-05-02T17:31:27.523Z,7.722
2023-05-02T17:35:29.832Z,6.318
2023-05-02T17:41:34.091Z,4.352
2023-05-02T17:45:36.500Z,4.492
2023-05-02T17:47:38.346Z,0
2023-05-02T17:51:41.502Z,2.386
2023-05-02T17:57:45.603Z,0
2023-05-02T18:01:48.710Z,3.51
2023-05-02T18:03:50.341Z,8.283
2023-05-02T18:07:53.568Z,4.352
2023-05-02T18:11:57.092Z,1.263
2023-05-02T18:13:58.941Z,0.28
2023-05-02T18:18:01.400Z,0
2023-05-02T18:24:05.717Z,0
2023-05-02T18:28:09.132Z,0
2023-05-02T18:30:10.228Z,0.14
2023-05-02T18:34:13.086Z,0
2023-05-02T18:40:16.629Z,0
2023-05-02T18:46:21.152Z,0
2023-05-02T18:50:23.603Z,1.123
2023-05-02T18:56:26.912Z,0.561
2023-05-02T19:00:30.244Z,0.842
2023-05-02T19:06:34.427Z,0.561
2023-05-02T19:10:37.155Z,0
2023-05-02T19:12:38.475Z,0.28
2023-05-02T19:16:41.223Z,0
2023-05-02T19:22:45.265Z,0
2023-05-02T19:27:31.382Z,0
2023-05-02T19:33:34.543Z,0.702
2023-05-02T19:37:37.669Z,0
2023-05-02T19:39:38.895Z,0
2023-05-02T19:43:41.741Z,0.14
2023-05-02T19:47:44.812Z,1.684
2023-05-02T19:49:46.613Z,0
2023-05-02T19:53:49.444Z,0
2023-05-02T19:59:53.682Z,0.561
2023-05-02T20:03:56.255Z,0
2023-05-02T20:05:57.316Z,0
2023-05-02T20:10:00.814Z,1.404
2023-05-02T20:16:05.027Z,0.28
2023-05-02T20:20:08.589Z,0.561
2023-05-02T20:22:10.073Z,1.965
2023-05-02T20:26:12.439Z,0.14
2023-05-02T20:30:15.481Z,2.386
2023-05-02T20:32:16.910Z,0
2023-05-02T20:36:19.548Z,0
2023-05-02T20:42:24.774Z,0
2023-05-02T20:46:27.750Z,0.421
2023-05-02T20:48:29.544Z,0
2023-05-02T20:52:31.749Z,0
2023-05-02T20:58:36.272Z,0
2023-05-02T21:02:39.694Z,0
2023-05-02T21:04:41.188Z,1.123
2023-05-02T21:08:44.315Z,0.561
2023-05-02T21:12:47.006Z,4.352
2023-05-02T21:14:48.396Z,1.544
2023-05-02T21:18:51.833Z,2.527
2023-05-02T21:22:54.603Z,0
2023-05-02T21:24:56.095Z,1.123
2023-05-02T21:28:59.665Z,0.421
2023-05-02T21:31:00.932Z,0
2023-05-02T21:35:04.603Z,2.527
2023-05-02T21:41:08.614Z,0
2023-05-02T21:45:12.408Z,0.421
2023-05-02T21:47:13.847Z,1.825
2023-05-02T21:51:16.032Z,0.28
2023-05-02T21:57:20.576Z,0
2023-05-02T22:01:23.367Z,0
2023-05-02T22:03:24.804Z,0
2023-05-02T22:07:27.277Z,0
2023-05-02T22:11:30.697Z,0.28
2023-05-02T22:13:32.268Z,0
2023-05-02T22:17:35.300Z,0.842
2023-05-02T22:23:39.724Z,1.263
2023-05-02T22:29:43.621Z,0.702
2023-05-02T22:33:46.439Z,3.65
2023-05-02T22:39:49.862Z,3.931
2023-05-02T22:43:52.950Z,2.106
2023-05-02T22:45:54.591Z,0
2023-05-02T22:49:57.530Z,0.14
2023-05-02T22:53:59.806Z,0.702
2023-05-02T22:56:00.939Z,1.404
2023-05-02T23:00:04.089Z,1.544
2023-05-02T23:06:08.326Z,0.702
2023-05-02T23:10:11.367Z,1.263
2023-05-02T23:12:13.133Z,2.948
2023-05-02T23:16:15.375Z,0.421
2023-05-02T23:22:19.958Z,1.544
2023-05-02T23:26:23.556Z,0.28
2023-05-02T23:28:25.176Z,0
2023-05-02T23:32:27.498Z,0
2023-05-02T23:36:30.279Z,0
2023-05-02T23:38:31.829Z,1.684
2023-05-02T23:42:34.748Z,0
2023-05-02T23:44:35.846Z,0
2023-05-02T23:48:39.626Z,0.982
2023-05-02T23:52:42.490Z,0
2023-05-02T23:54:44.412Z,0
2023-05-02T23:58:47.821Z,0.561
